Flugplatz Berlin-Tegel International

Bericht für EDDT

vom 17.07. um 23:20 UTC

Wind 3 kt aus 70°

Sichtweite 10 km oder mehr

gute Sicht, keine Wolken < 5000 ft, keine CB, keine Wettererscheinungen (CAVOK)

Temperatur 16.0°C

Taupunkt 10.0°C

Luftfeuchtigkeit 68%

Luftdruck 1013 hPa

EDDT 172320Z 07003KT 030V110 CAVOK 16/10 Q1013

Prognose für EDDT

vom 17.07. um 00:00 UTC

Zwischen 00:00 UTC und 00:00 UTC

variable Windrichtung mit 3 kt

Sichtweite 10 km oder mehr

keine signifikanten Wettererscheinungen

keine Wolken

TAF EDDT 172300Z 1800/1824 VRB03KT CAVOK
Impressum